createdAt,value
2018-12-12T00:01:41.434Z,0.70
2018-12-12T00:04:14.517Z,0.70
2018-12-12T00:06:46.613Z,0.70
2018-12-12T00:09:18.849Z,0.70
2018-12-12T00:11:51.220Z,0.70
2018-12-12T00:14:23.415Z,0.70
2018-12-12T00:16:55.111Z,0.80
2018-12-12T00:19:27.113Z,0.80
2018-12-12T00:21:59.014Z,0.90
2018-12-12T00:24:30.766Z,0.80
2018-12-12T00:27:03.329Z,0.80
2018-12-12T00:29:35.409Z,0.80
2018-12-12T00:32:08.068Z,0.70
2018-12-12T00:34:39.884Z,0.70
2018-12-12T00:37:12.050Z,0.70
2018-12-12T00:39:44.188Z,0.70
2018-12-12T00:42:17.873Z,0.70
2018-12-12T00:44:50.553Z,0.70
2018-12-12T00:47:22.684Z,0.70
2018-12-12T00:49:54.915Z,0.70
2018-12-12T00:52:26.801Z,0.80
2018-12-12T00:54:59.249Z,0.80
2018-12-12T00:57:31.072Z,1.00
2018-12-12T01:00:02.980Z,1.00
2018-12-12T01:02:34.906Z,1.00
2018-12-12T01:05:07.791Z,1.00
2018-12-12T01:07:39.669Z,1.00
2018-12-12T01:10:11.699Z,1.10
2018-12-12T01:12:43.765Z,1.10
2018-12-12T01:15:15.725Z,1.10
2018-12-12T01:17:47.754Z,1.10
2018-12-12T01:20:19.686Z,1.10
2018-12-12T01:22:51.621Z,1.10
2018-12-12T01:25:23.318Z,1.00
2018-12-12T01:27:55.410Z,1.00
2018-12-12T01:30:27.264Z,1.00
2018-12-12T01:32:59.799Z,1.00
2018-12-12T01:35:31.365Z,1.00
2018-12-12T01:38:03.262Z,1.00
2018-12-12T01:40:35.306Z,1.00
2018-12-12T01:43:07.733Z,1.00
2018-12-12T01:45:40.329Z,1.00
2018-12-12T01:48:12.782Z,1.00
2018-12-12T01:50:44.673Z,1.00
2018-12-12T01:53:16.655Z,1.00
2018-12-12T01:55:49.395Z,1.00
2018-12-12T01:58:21.201Z,1.00
2018-12-12T02:00:52.999Z,1.00
2018-12-12T02:03:25.292Z,0.90
2018-12-12T02:05:58.175Z,0.90
2018-12-12T02:08:30.025Z,0.90
2018-12-12T02:11:02.046Z,0.90
2018-12-12T02:13:39.757Z,0.90
2018-12-12T02:16:11.891Z,1.00
2018-12-12T02:18:47.040Z,1.00
2018-12-12T02:21:18.952Z,1.10
2018-12-12T02:23:50.739Z,1.10
2018-12-12T02:26:22.726Z,1.10
2018-12-12T02:28:54.902Z,1.10
2018-12-12T02:31:26.813Z,1.10
2018-12-12T02:33:59.301Z,1.10
2018-12-12T02:36:31.001Z,1.10
2018-12-12T02:39:03.749Z,1.10
2018-12-12T02:41:35.648Z,1.10
2018-12-12T02:44:07.241Z,1.00
2018-12-12T02:46:40.018Z,1.10
2018-12-12T02:49:12.031Z,1.10
2018-12-12T02:51:44.177Z,1.10
2018-12-12T02:54:16.005Z,1.10
2018-12-12T02:56:47.971Z,1.10
2018-12-12T02:59:19.968Z,1.10
2018-12-12T03:01:52.176Z,1.20
2018-12-12T03:04:24.812Z,1.20
2018-12-12T03:06:56.691Z,1.20
2018-12-12T03:09:28.776Z,1.20
2018-12-12T03:12:00.581Z,1.20
2018-12-12T03:14:32.535Z,1.20
2018-12-12T03:17:04.718Z,1.20
2018-12-12T03:19:38.415Z,1.20
2018-12-12T03:22:10.172Z,1.20
2018-12-12T03:24:42.117Z,1.20
2018-12-12T03:27:14.143Z,1.20
2018-12-12T03:29:46.211Z,1.10
2018-12-12T03:32:18.395Z,1.10
2018-12-12T03:34:50.102Z,1.10
2018-12-12T03:37:22.785Z,1.10
2018-12-12T03:39:54.863Z,1.20
2018-12-12T03:42:27.743Z,1.20
2018-12-12T03:44:59.792Z,1.20
2018-12-12T03:47:31.736Z,1.30
2018-12-12T03:50:03.652Z,1.20
2018-12-12T03:52:35.759Z,1.20
2018-12-12T03:55:08.152Z,1.20
2018-12-12T03:57:40.196Z,1.20
2018-12-12T04:00:13.375Z,1.20
2018-12-12T04:02:45.243Z,1.20
2018-12-12T04:05:17.241Z,1.20
2018-12-12T04:07:49.845Z,1.20
2018-12-12T04:10:22.983Z,1.30
2018-12-12T04:12:54.696Z,1.40
2018-12-12T04:15:26.761Z,1.40
2018-12-12T04:17:59.039Z,1.40
2018-12-12T04:20:31.348Z,1.40
2018-12-12T04:23:04.729Z,1.30
2018-12-12T04:25:36.745Z,1.20
2018-12-12T04:28:08.462Z,1.10
2018-12-12T04:30:40.303Z,1.10
2018-12-12T04:33:12.528Z,1.10
2018-12-12T04:35:44.315Z,1.20
2018-12-12T04:38:16.257Z,1.20
2018-12-12T04:40:49.384Z,1.20
2018-12-12T04:43:21.311Z,1.20
2018-12-12T04:45:53.257Z,1.20
2018-12-12T04:48:25.777Z,1.20
2018-12-12T04:50:58.144Z,1.10
2018-12-12T04:53:29.973Z,1.00
2018-12-12T04:56:02.132Z,1.00
2018-12-12T04:58:34.730Z,1.00
2018-12-12T05:01:06.693Z,0.90
2018-12-12T05:03:38.815Z,0.90
2018-12-12T05:06:11.090Z,0.90
2018-12-12T05:08:43.293Z,0.90
2018-12-12T05:11:15.430Z,0.90
2018-12-12T05:13:47.375Z,1.00
2018-12-12T05:16:19.548Z,1.00
2018-12-12T05:18:51.395Z,0.90
2018-12-12T05:21:23.241Z,0.90
2018-12-12T05:23:55.273Z,0.90
2018-12-12T05:26:28.035Z,0.90
2018-12-12T05:29:00.196Z,0.90
2018-12-12T05:31:32.258Z,0.90
2018-12-12T05:34:04.513Z,0.80
2018-12-12T05:36:36.949Z,0.90
2018-12-12T05:39:09.719Z,0.90
2018-12-12T05:41:42.769Z,1.00
2018-12-12T05:44:15.578Z,1.00
2018-12-12T05:46:47.697Z,1.00
2018-12-12T05:49:19.904Z,1.10
2018-12-12T05:51:52.270Z,1.10
2018-12-12T05:54:24.218Z,1.10
2018-12-12T05:56:56.293Z,1.10
2018-12-12T05:59:28.771Z,1.10
2018-12-12T06:02:01.070Z,1.10
2018-12-12T06:04:32.811Z,1.10
2018-12-12T06:07:04.938Z,1.10
2018-12-12T06:09:37.145Z,1.10
2018-12-12T06:12:09.162Z,1.20
2018-12-12T06:14:41.195Z,1.20
2018-12-12T06:17:13.490Z,1.20
2018-12-12T06:19:46.596Z,1.30
2018-12-12T06:22:18.824Z,1.30
2018-12-12T06:24:51.084Z,1.40
2018-12-12T06:27:24.016Z,1.40
2018-12-12T06:29:56.049Z,1.40
2018-12-12T06:32:28.069Z,1.40
2018-12-12T06:35:00.163Z,1.40
2018-12-12T06:37:32.144Z,1.50
2018-12-12T06:40:04.249Z,1.50
2018-12-12T06:42:36.345Z,1.50
2018-12-12T06:45:08.816Z,1.50
2018-12-12T06:47:41.487Z,1.60
2018-12-12T06:50:13.578Z,1.60
2018-12-12T06:52:46.450Z,1.60
2018-12-12T06:55:18.753Z,1.60
2018-12-12T06:57:50.622Z,1.60
2018-12-12T07:00:22.573Z,1.60
2018-12-12T07:02:59.148Z,1.70
2018-12-12T07:05:31.164Z,1.80
2018-12-12T07:08:03.153Z,1.80
2018-12-12T07:10:35.233Z,1.80
2018-12-12T07:13:07.204Z,1.90
2018-12-12T07:15:39.130Z,1.90
2018-12-12T07:18:11.476Z,2.00
2018-12-12T07:20:43.985Z,2.10
2018-12-12T07:23:16.849Z,2.20
2018-12-12T07:25:48.610Z,2.30
2018-12-12T07:28:20.638Z,2.40
2018-12-12T07:30:52.871Z,2.50
2018-12-12T07:33:25.483Z,2.60
2018-12-12T07:35:59.615Z,2.70
2018-12-12T07:38:32.328Z,2.90
2018-12-12T07:41:04.409Z,3.00
2018-12-12T07:43:36.330Z,4.10
2018-12-12T07:46:08.935Z,5.70
2018-12-12T07:48:41.184Z,6.80
2018-12-12T07:51:13.368Z,6.40
2018-12-12T07:53:45.500Z,5.50
2018-12-12T07:56:17.604Z,4.80
2018-12-12T07:58:50.111Z,4.40
2018-12-12T08:01:22.311Z,4.10
2018-12-12T08:03:54.103Z,3.80
2018-12-12T08:06:26.167Z,4.50
2018-12-12T08:08:58.443Z,5.60
2018-12-12T08:11:30.356Z,6.60
2018-12-12T08:14:03.131Z,6.80
2018-12-12T08:16:36.704Z,7.00
2018-12-12T08:19:09.639Z,6.90
2018-12-12T08:21:41.598Z,6.30
2018-12-12T08:24:13.574Z,5.70
2018-12-12T08:26:45.503Z,5.20
2018-12-12T08:29:17.697Z,4.90
2018-12-12T08:31:49.984Z,4.70
2018-12-12T08:34:22.924Z,4.70
2018-12-12T08:36:55.446Z,4.50
2018-12-12T08:39:27.749Z,4.60
2018-12-12T08:42:00.048Z,4.70
2018-12-12T08:44:32.075Z,4.90
2018-12-12T08:47:04.076Z,5.50
2018-12-12T08:49:36.849Z,6.70
2018-12-12T08:52:09.337Z,6.70
2018-12-12T08:54:41.935Z,6.40
2018-12-12T08:57:14.561Z,6.30
2018-12-12T08:59:46.843Z,6.10
2018-12-12T09:02:18.959Z,5.60
2018-12-12T09:04:51.360Z,5.40
2018-12-12T09:07:23.515Z,5.00
2018-12-12T09:09:55.668Z,4.80
2018-12-12T09:12:27.736Z,4.60
2018-12-12T09:14:59.769Z,4.30
2018-12-12T09:17:32.059Z,4.20
2018-12-12T09:20:04.234Z,4.00
2018-12-12T09:22:36.920Z,3.80
2018-12-12T09:25:09.854Z,3.60
2018-12-12T09:27:41.984Z,3.50
2018-12-12T09:30:14.285Z,3.40
2018-12-12T09:32:46.412Z,3.40
2018-12-12T09:35:18.499Z,3.40
2018-12-12T09:37:50.625Z,3.50
2018-12-12T09:40:22.867Z,3.40
2018-12-12T09:42:54.564Z,3.30
2018-12-12T09:45:27.368Z,3.30
2018-12-12T09:48:00.119Z,3.40
2018-12-12T09:50:32.496Z,3.40
2018-12-12T09:53:04.631Z,3.50
2018-12-12T09:55:37.698Z,3.60
2018-12-12T09:58:10.044Z,3.60
2018-12-12T10:00:42.446Z,3.70
2018-12-12T10:03:14.761Z,3.70
2018-12-12T10:05:47.027Z,3.60
2018-12-12T10:08:19.202Z,3.60
2018-12-12T10:10:51.364Z,3.60
2018-12-12T10:13:23.395Z,3.70
2018-12-12T10:15:55.304Z,3.90
2018-12-12T10:18:27.719Z,4.10
2018-12-12T10:20:59.796Z,4.30
2018-12-12T10:23:31.745Z,4.40
2018-12-12T10:26:04.221Z,4.30
2018-12-12T10:28:37.409Z,4.00
2018-12-12T10:31:09.418Z,3.80
2018-12-12T10:33:41.322Z,3.70
2018-12-12T10:36:13.205Z,3.60
2018-12-12T10:38:45.359Z,3.60
2018-12-12T10:41:18.052Z,3.70
2018-12-12T10:43:50.458Z,3.60
2018-12-12T10:46:22.713Z,3.70
2018-12-12T10:48:55.191Z,3.60
2018-12-12T10:51:27.183Z,3.60
2018-12-12T10:53:59.394Z,3.60
2018-12-12T10:56:31.688Z,3.70
2018-12-12T10:59:03.892Z,4.10
2018-12-12T11:01:42.161Z,4.40
2018-12-12T11:04:14.567Z,4.70
2018-12-12T11:06:46.636Z,4.80
2018-12-12T11:09:18.609Z,4.90
2018-12-12T11:11:50.597Z,5.20
2018-12-12T11:14:22.805Z,5.30
2018-12-12T11:16:54.934Z,5.30
2018-12-12T11:19:27.438Z,5.40
2018-12-12T11:22:00.051Z,5.50
2018-12-12T11:24:32.246Z,5.70
2018-12-12T11:27:04.451Z,5.60
2018-12-12T11:29:36.693Z,5.60
2018-12-12T11:32:08.787Z,5.70
2018-12-12T11:34:57.017Z,5.70
2018-12-12T11:37:29.008Z,5.80
2018-12-12T11:40:01.067Z,5.90
2018-12-12T11:42:33.306Z,6.00
2018-12-12T11:45:05.415Z,6.00
2018-12-12T11:47:37.381Z,5.80
2018-12-12T11:50:09.741Z,5.60
2018-12-12T11:52:41.872Z,5.40
2018-12-12T11:55:14.182Z,5.20
2018-12-12T11:57:46.525Z,5.00
2018-12-12T12:00:19.298Z,4.80
2018-12-12T12:02:51.375Z,4.70
2018-12-12T12:05:23.875Z,4.60
2018-12-12T12:07:55.760Z,4.60
2018-12-12T12:10:27.832Z,4.60
2018-12-12T12:13:01.088Z,4.60
2018-12-12T12:15:33.739Z,4.50
2018-12-12T12:18:05.940Z,4.50
2018-12-12T12:20:37.899Z,4.50
2018-12-12T12:23:09.924Z,4.50
2018-12-12T12:25:41.827Z,4.40
2018-12-12T12:28:13.965Z,4.40
2018-12-12T12:30:45.987Z,4.40
2018-12-12T12:33:18.097Z,4.30
2018-12-12T12:35:51.312Z,4.20
2018-12-12T12:38:23.785Z,4.10
2018-12-12T12:40:55.775Z,4.10
2018-12-12T12:43:27.913Z,4.00
2018-12-12T12:46:00.210Z,4.00
2018-12-12T12:48:32.044Z,4.00
2018-12-12T12:51:03.957Z,3.90
2018-12-12T12:53:36.681Z,3.90
2018-12-12T12:56:08.868Z,3.90
2018-12-12T12:58:40.600Z,3.90
2018-12-12T13:01:13.168Z,3.80
2018-12-12T13:03:45.448Z,3.80
2018-12-12T13:06:17.480Z,3.70
2018-12-12T13:08:49.889Z,3.70
2018-12-12T13:11:22.247Z,3.70
2018-12-12T13:13:54.295Z,3.70
2018-12-12T13:16:26.962Z,3.70
2018-12-12T13:18:58.932Z,3.70
2018-12-12T13:21:30.889Z,3.70
2018-12-12T13:24:03.235Z,3.70
2018-12-12T13:26:36.034Z,3.70
2018-12-12T13:29:08.674Z,3.70
2018-12-12T13:31:40.382Z,3.70
2018-12-12T13:34:16.252Z,3.70
2018-12-12T13:36:47.401Z,3.60
2018-12-12T13:39:20.149Z,3.60
2018-12-12T13:41:53.064Z,3.60
2018-12-12T13:44:24.852Z,3.60
2018-12-12T13:49:36.639Z,3.50
2018-12-12T13:52:08.569Z,3.50
2018-12-12T13:54:40.512Z,3.50
2018-12-12T13:57:12.466Z,3.60
2018-12-12T13:59:45.252Z,3.60
2018-12-12T14:02:17.565Z,3.60
2018-12-12T14:04:49.694Z,3.50
2018-12-12T14:07:21.886Z,3.50
2018-12-12T14:09:54.008Z,3.50
2018-12-12T14:12:26.085Z,3.50
2018-12-12T14:14:58.351Z,3.50
2018-12-12T14:17:30.566Z,3.40
2018-12-12T14:20:07.722Z,3.40
2018-12-12T14:22:39.672Z,3.40
2018-12-12T14:25:11.382Z,3.40
2018-12-12T14:27:44.146Z,3.30
2018-12-12T14:30:16.239Z,3.30
2018-12-12T14:32:48.328Z,3.30
2018-12-12T14:35:21.502Z,3.30
2018-12-12T14:37:53.810Z,3.30
2018-12-12T14:40:25.756Z,3.30
2018-12-12T14:42:57.751Z,3.30
2018-12-12T14:45:30.263Z,3.30
2018-12-12T14:48:02.454Z,3.30
2018-12-12T14:50:34.958Z,3.20
2018-12-12T14:53:07.096Z,3.20
2018-12-12T14:55:38.837Z,3.20
2018-12-12T14:58:10.859Z,3.10
2018-12-12T15:00:43.378Z,3.10
2018-12-12T15:03:15.157Z,3.10
2018-12-12T15:05:48.326Z,3.10
2018-12-12T15:08:20.213Z,3.10
2018-12-12T15:10:52.722Z,3.10
2018-12-12T15:13:25.015Z,3.10
2018-12-12T15:15:57.570Z,3.10
2018-12-12T15:18:30.047Z,3.10
2018-12-12T15:21:02.593Z,3.10
2018-12-12T15:23:34.835Z,3.10
2018-12-12T15:26:07.044Z,3.20
2018-12-12T15:28:39.131Z,3.20
2018-12-12T15:31:11.682Z,3.10
2018-12-12T15:33:43.792Z,3.00
2018-12-12T15:36:16.250Z,3.00
2018-12-12T15:38:48.379Z,2.90
2018-12-12T15:41:20.529Z,2.80
2018-12-12T15:43:52.553Z,2.80
2018-12-12T15:46:24.913Z,2.80
2018-12-12T15:48:57.131Z,2.80
2018-12-12T15:51:29.098Z,2.80
2018-12-12T15:54:00.929Z,2.70
2018-12-12T15:56:33.084Z,2.70
2018-12-12T15:59:05.553Z,2.70
2018-12-12T16:01:37.876Z,2.70
2018-12-12T16:04:10.284Z,2.70
2018-12-12T16:06:42.968Z,2.70
2018-12-12T16:09:15.194Z,2.70
2018-12-12T16:11:47.130Z,2.80
2018-12-12T16:14:19.264Z,2.80
2018-12-12T16:16:51.681Z,2.80
2018-12-12T16:19:24.265Z,2.80
2018-12-12T16:21:56.785Z,2.80
2018-12-12T16:24:28.939Z,2.90
2018-12-12T16:27:01.676Z,2.90
2018-12-12T16:29:33.910Z,2.90
2018-12-12T16:32:06.406Z,2.80
2018-12-12T16:34:38.648Z,2.90
2018-12-12T16:37:11.236Z,2.90
2018-12-12T16:39:44.098Z,2.90
2018-12-12T16:42:16.954Z,2.90
2018-12-12T16:44:49.824Z,2.80
2018-12-12T16:47:22.814Z,2.70
2018-12-12T16:49:55.290Z,2.60
2018-12-12T16:52:28.482Z,2.60
2018-12-12T16:55:01.222Z,2.60
2018-12-12T16:57:33.890Z,2.60
2018-12-12T17:00:07.972Z,2.60
2018-12-12T17:02:41.300Z,2.60
2018-12-12T17:05:15.740Z,2.50
2018-12-12T17:07:48.856Z,2.50
2018-12-12T17:10:21.137Z,2.50
2018-12-12T17:12:55.958Z,2.40
2018-12-12T17:15:29.364Z,2.40
2018-12-12T17:18:01.172Z,2.40
2018-12-12T17:20:33.121Z,2.50
2018-12-12T17:23:06.019Z,2.50
2018-12-12T17:25:37.968Z,2.50
2018-12-12T17:28:10.104Z,2.50
2018-12-12T17:30:42.396Z,2.50
2018-12-12T17:33:14.917Z,2.50
2018-12-12T17:35:47.226Z,2.60
2018-12-12T17:38:21.277Z,2.60
2018-12-12T17:40:53.805Z,2.60
2018-12-12T17:43:26.100Z,2.60
2018-12-12T17:45:58.392Z,2.50
2018-12-12T17:48:32.140Z,2.50
2018-12-12T17:51:07.989Z,2.40
2018-12-12T17:53:40.070Z,2.30
2018-12-12T17:56:12.403Z,2.30
2018-12-12T17:58:44.889Z,2.40
2018-12-12T18:01:17.461Z,2.30
2018-12-12T18:03:50.000Z,2.30
2018-12-12T18:06:22.346Z,2.30
2018-12-12T18:08:54.901Z,2.30
2018-12-12T18:11:27.336Z,2.30
2018-12-12T18:13:59.446Z,2.30
2018-12-12T18:16:32.978Z,2.30
2018-12-12T18:19:05.914Z,2.30
2018-12-12T18:21:38.592Z,2.30
2018-12-12T18:24:10.783Z,2.40
2018-12-12T18:26:43.098Z,2.30
2018-12-12T18:29:15.500Z,2.30
2018-12-12T18:31:49.834Z,2.30
2018-12-12T18:34:22.518Z,2.30
2018-12-12T18:36:55.579Z,2.20
2018-12-12T18:39:29.280Z,2.20
2018-12-12T18:42:02.932Z,2.10
2018-12-12T18:44:36.076Z,2.00
2018-12-12T18:47:10.596Z,2.00
2018-12-12T18:49:43.765Z,2.10
2018-12-12T18:52:17.167Z,2.00
2018-12-12T18:54:50.106Z,2.00
2018-12-12T18:57:22.929Z,1.90
2018-12-12T18:59:57.245Z,1.90
2018-12-12T19:02:29.914Z,1.90
2018-12-12T19:05:03.084Z,1.90
2018-12-12T19:07:36.436Z,1.80
2018-12-12T19:10:10.630Z,1.80
2018-12-12T19:12:44.782Z,1.80
2018-12-12T19:15:17.660Z,1.80
2018-12-12T19:17:51.588Z,1.80
2018-12-12T19:20:24.855Z,1.80
2018-12-12T19:22:58.456Z,1.80
2018-12-12T19:25:31.798Z,1.80
2018-12-12T19:28:03.978Z,1.80
2018-12-12T19:30:37.479Z,1.80
2018-12-12T19:33:10.031Z,1.90
2018-12-12T19:35:42.716Z,1.90
2018-12-12T19:38:15.975Z,1.90
2018-12-12T19:40:49.145Z,2.00
2018-12-12T19:43:22.456Z,2.00
2018-12-12T19:45:55.683Z,2.00
2018-12-12T19:48:29.986Z,2.10
2018-12-12T19:51:03.234Z,2.10
2018-12-12T19:53:35.694Z,2.10
2018-12-12T19:56:10.683Z,2.10
2018-12-12T19:58:44.682Z,2.10
2018-12-12T20:01:18.158Z,2.10
2018-12-12T20:03:51.673Z,2.10
2018-12-12T20:06:25.562Z,2.10
2018-12-12T20:08:57.932Z,2.10
2018-12-12T20:11:30.590Z,2.10
2018-12-12T20:14:10.265Z,2.10
2018-12-12T20:16:43.429Z,2.10
2018-12-12T20:19:16.837Z,2.10
2018-12-12T20:21:49.406Z,2.10
2018-12-12T20:24:22.898Z,2.10
2018-12-12T20:26:55.596Z,2.20
2018-12-12T20:29:28.388Z,2.10
2018-12-12T20:32:01.737Z,2.10
2018-12-12T20:34:34.090Z,2.20
2018-12-12T20:37:06.199Z,2.20
2018-12-12T20:39:38.212Z,2.30
2018-12-12T20:42:10.325Z,2.30
2018-12-12T20:44:42.177Z,2.20
2018-12-12T20:47:15.753Z,2.20
2018-12-12T20:49:47.668Z,2.30
2018-12-12T20:52:20.052Z,2.30
2018-12-12T20:54:52.490Z,2.20
2018-12-12T20:57:25.105Z,2.20
2018-12-12T20:59:56.989Z,2.20
2018-12-12T21:02:29.437Z,2.20
2018-12-12T21:05:01.714Z,2.10
2018-12-12T21:07:34.048Z,2.10
2018-12-12T21:10:06.552Z,2.00
2018-12-12T21:12:38.908Z,2.00
2018-12-12T21:15:11.149Z,2.00
2018-12-12T21:17:43.365Z,2.00
2018-12-12T21:20:15.433Z,1.90
2018-12-12T21:22:47.847Z,1.80
2018-12-12T21:25:19.458Z,1.80
2018-12-12T21:27:51.463Z,1.80
2018-12-12T21:30:23.925Z,1.70
2018-12-12T21:32:56.925Z,1.70
2018-12-12T21:35:29.103Z,1.60
2018-12-12T21:38:01.342Z,1.60
2018-12-12T21:40:33.411Z,1.50
2018-12-12T21:43:05.921Z,1.50
2018-12-12T21:45:38.016Z,1.40
2018-12-12T21:48:10.445Z,1.40
2018-12-12T21:53:15.517Z,1.30
2018-12-12T21:55:48.452Z,1.20
2018-12-12T21:58:20.596Z,1.20
2018-12-12T22:00:52.617Z,1.20
2018-12-12T22:03:25.373Z,1.20
2018-12-12T22:05:57.698Z,1.20
2018-12-12T22:08:29.488Z,1.20
2018-12-12T22:11:01.150Z,1.20
2018-12-12T22:13:33.978Z,1.20
2018-12-12T22:16:05.930Z,1.20
2018-12-12T22:18:39.031Z,1.20
2018-12-12T22:21:11.277Z,1.30
2018-12-12T22:23:43.127Z,1.40
2018-12-12T22:26:15.480Z,1.40
2018-12-12T22:28:47.272Z,1.50
2018-12-12T22:31:19.752Z,1.50
2018-12-12T22:33:52.336Z,1.50
2018-12-12T22:36:24.196Z,1.50
2018-12-12T22:38:56.478Z,1.50
2018-12-12T22:41:28.545Z,1.50
2018-12-12T22:44:00.453Z,1.50
2018-12-12T22:46:32.336Z,1.60
2018-12-12T22:49:04.387Z,1.50
2018-12-12T22:51:36.600Z,1.50
2018-12-12T22:54:08.723Z,1.40
2018-12-12T22:56:41.326Z,1.40
2018-12-12T22:59:13.309Z,1.30
2018-12-12T23:01:45.917Z,1.20
2018-12-12T23:04:17.818Z,1.20
2018-12-12T23:06:50.086Z,1.20
2018-12-12T23:09:21.885Z,1.10
2018-12-12T23:11:54.045Z,1.10
2018-12-12T23:14:26.892Z,1.10
2018-12-12T23:16:58.895Z,1.10
2018-12-12T23:19:31.048Z,1.10
2018-12-12T23:22:03.017Z,1.00
2018-12-12T23:24:34.859Z,0.90
2018-12-12T23:27:06.804Z,0.90
2018-12-12T23:29:38.494Z,0.80
2018-12-12T23:32:10.793Z,0.80
2018-12-12T23:34:43.438Z,0.80
2018-12-12T23:37:16.321Z,0.80
2018-12-12T23:39:48.180Z,0.80
2018-12-12T23:42:20.329Z,0.80
2018-12-12T23:44:52.218Z,0.80
2018-12-12T23:50:33.457Z,0.80
2018-12-12T23:53:05.423Z,0.80
2018-12-12T23:55:37.165Z,0.80
2018-12-12T23:58:09.236Z,0.80
